sensor_id;sensor_type;location;lat;lon;timestamp;P1;durP1;ratioP1;P2;durP2;ratioP2
42332;SDS011;27984;51.476;5.702;2022-12-01T00:00:51;61.75;;;26.00;;
42332;SDS011;27984;51.476;5.702;2022-12-01T00:03:18;56.60;;;25.35;;
42332;SDS011;27984;51.476;5.702;2022-12-01T00:05:44;57.50;;;24.73;;
42332;SDS011;27984;51.476;5.702;2022-12-01T00:08:10;55.75;;;25.17;;
42332;SDS011;27984;51.476;5.702;2022-12-01T00:10:36;64.95;;;27.35;;
42332;SDS011;27984;51.476;5.702;2022-12-01T00:13:05;63.15;;;26.02;;
42332;SDS011;27984;51.476;5.702;2022-12-01T00:15:32;63.40;;;26.40;;
42332;SDS011;27984;51.476;5.702;2022-12-01T00:18:02;64.30;;;26.85;;
42332;SDS011;27984;51.476;5.702;2022-12-01T00:20:32;63.97;;;27.33;;
42332;SDS011;27984;51.476;5.702;2022-12-01T00:22:59;63.13;;;26.02;;
42332;SDS011;27984;51.476;5.702;2022-12-01T00:25:25;61.33;;;27.13;;
42332;SDS011;27984;51.476;5.702;2022-12-01T00:27:54;70.45;;;28.27;;
42332;SDS011;27984;51.476;5.702;2022-12-01T00:30:21;71.88;;;29.85;;
42332;SDS011;27984;51.476;5.702;2022-12-01T00:32:47;76.97;;;30.70;;
42332;SDS011;27984;51.476;5.702;2022-12-01T00:35:13;71.50;;;30.38;;
42332;SDS011;27984;51.476;5.702;2022-12-01T00:37:40;78.68;;;29.85;;
42332;SDS011;27984;51.476;5.702;2022-12-01T00:40:06;76.70;;;30.63;;
42332;SDS011;27984;51.476;5.702;2022-12-01T00:42:33;90.40;;;33.13;;
42332;SDS011;27984;51.476;5.702;2022-12-01T00:44:59;79.88;;;31.73;;
42332;SDS011;27984;51.476;5.702;2022-12-01T00:47:25;87.28;;;32.17;;
42332;SDS011;27984;51.476;5.702;2022-12-01T00:49:54;88.80;;;32.15;;
42332;SDS011;27984;51.476;5.702;2022-12-01T00:52:20;80.38;;;32.53;;
42332;SDS011;27984;51.476;5.702;2022-12-01T00:54:46;84.75;;;31.80;;
42332;SDS011;27984;51.476;5.702;2022-12-01T00:57:12;85.47;;;32.97;;
42332;SDS011;27984;51.476;5.702;2022-12-01T00:59:38;77.53;;;31.80;;
42332;SDS011;27984;51.476;5.702;2022-12-01T01:02:04;81.85;;;31.42;;
42332;SDS011;27984;51.476;5.702;2022-12-01T01:04:31;77.18;;;30.83;;
42332;SDS011;27984;51.476;5.702;2022-12-01T01:06:57;74.75;;;30.95;;
42332;SDS011;27984;51.476;5.702;2022-12-01T01:09:23;79.65;;;31.30;;
42332;SDS011;27984;51.476;5.702;2022-12-01T01:11:50;77.25;;;29.88;;
42332;SDS011;27984;51.476;5.702;2022-12-01T01:14:16;75.60;;;30.92;;
42332;SDS011;27984;51.476;5.702;2022-12-01T01:16:42;74.35;;;29.90;;
42332;SDS011;27984;51.476;5.702;2022-12-01T01:19:08;76.85;;;31.02;;
42332;SDS011;27984;51.476;5.702;2022-12-01T01:21:34;74.72;;;30.30;;
42332;SDS011;27984;51.476;5.702;2022-12-01T01:24:00;75.57;;;29.80;;
42332;SDS011;27984;51.476;5.702;2022-12-01T01:26:27;73.80;;;30.67;;
42332;SDS011;27984;51.476;5.702;2022-12-01T01:28:58;73.82;;;30.05;;
42332;SDS011;27984;51.476;5.702;2022-12-01T01:31:25;74.88;;;30.98;;
42332;SDS011;27984;51.476;5.702;2022-12-01T01:33:51;76.30;;;30.75;;
42332;SDS011;27984;51.476;5.702;2022-12-01T01:36:18;72.72;;;29.95;;
42332;SDS011;27984;51.476;5.702;2022-12-01T01:38:44;72.13;;;30.80;;
42332;SDS011;27984;51.476;5.702;2022-12-01T01:41:20;72.35;;;30.85;;
42332;SDS011;27984;51.476;5.702;2022-12-01T01:43:56;68.10;;;28.50;;
42332;SDS011;27984;51.476;5.702;2022-12-01T01:46:27;75.93;;;30.30;;
42332;SDS011;27984;51.476;5.702;2022-12-01T01:48:54;73.78;;;29.38;;
42332;SDS011;27984;51.476;5.702;2022-12-01T01:51:23;68.60;;;29.38;;
42332;SDS011;27984;51.476;5.702;2022-12-01T01:53:53;64.65;;;28.42;;
42332;SDS011;27984;51.476;5.702;2022-12-01T01:56:20;77.00;;;29.73;;
42332;SDS011;27984;51.476;5.702;2022-12-01T01:58:47;75.40;;;30.85;;
42332;SDS011;27984;51.476;5.702;2022-12-01T02:01:13;72.05;;;30.02;;
42332;SDS011;27984;51.476;5.702;2022-12-01T02:03:42;67.65;;;29.83;;
42332;SDS011;27984;51.476;5.702;2022-12-01T02:06:08;75.30;;;29.33;;
42332;SDS011;27984;51.476;5.702;2022-12-01T02:08:35;73.32;;;29.83;;
42332;SDS011;27984;51.476;5.702;2022-12-01T02:34:02;75.35;;;29.73;;
42332;SDS011;27984;51.476;5.702;2022-12-01T02:36:35;76.53;;;29.23;;
42332;SDS011;27984;51.476;5.702;2022-12-01T02:39:06;76.78;;;31.35;;
42332;SDS011;27984;51.476;5.702;2022-12-01T02:42:07;78.82;;;31.55;;
42332;SDS011;27984;51.476;5.702;2022-12-01T02:44:30;76.72;;;29.42;;
42332;SDS011;27984;51.476;5.702;2022-12-01T02:47:04;82.20;;;30.55;;
42332;SDS011;27984;51.476;5.702;2022-12-01T02:49:35;72.97;;;29.77;;
42332;SDS011;27984;51.476;5.702;2022-12-01T02:52:05;73.70;;;29.52;;
42332;SDS011;27984;51.476;5.702;2022-12-01T02:54:31;75.20;;;30.10;;
42332;SDS011;27984;51.476;5.702;2022-12-01T02:56:58;73.00;;;29.85;;
42332;SDS011;27984;51.476;5.702;2022-12-01T02:59:24;78.68;;;31.35;;
42332;SDS011;27984;51.476;5.702;2022-12-01T03:07:26;72.97;;;29.85;;
42332;SDS011;27984;51.476;5.702;2022-12-01T03:17:48;73.15;;;29.75;;
42332;SDS011;27984;51.476;5.702;2022-12-01T03:20:17;74.28;;;29.48;;
42332;SDS011;27984;51.476;5.702;2022-12-01T03:22:47;75.85;;;30.58;;
42332;SDS011;27984;51.476;5.702;2022-12-01T03:25:14;81.90;;;32.72;;
42332;SDS011;27984;51.476;5.702;2022-12-01T03:27:41;73.10;;;29.33;;
42332;SDS011;27984;51.476;5.702;2022-12-01T03:30:08;76.28;;;29.73;;
42332;SDS011;27984;51.476;5.702;2022-12-01T03:35:35;75.32;;;30.25;;
42332;SDS011;27984;51.476;5.702;2022-12-01T03:40:48;69.47;;;28.58;;
42332;SDS011;27984;51.476;5.702;2022-12-01T03:43:18;77.78;;;30.63;;
42332;SDS011;27984;51.476;5.702;2022-12-01T03:48:19;73.20;;;30.10;;
42332;SDS011;27984;51.476;5.702;2022-12-01T03:53:20;76.32;;;30.08;;
42332;SDS011;27984;51.476;5.702;2022-12-01T03:55:49;77.15;;;30.45;;
42332;SDS011;27984;51.476;5.702;2022-12-01T03:58:22;78.97;;;30.13;;
42332;SDS011;27984;51.476;5.702;2022-12-01T04:00:50;79.53;;;30.40;;
42332;SDS011;27984;51.476;5.702;2022-12-01T04:03:20;76.70;;;29.95;;
42332;SDS011;27984;51.476;5.702;2022-12-01T04:05:47;81.60;;;30.05;;
42332;SDS011;27984;51.476;5.702;2022-12-01T04:08:13;73.53;;;30.48;;
42332;SDS011;27984;51.476;5.702;2022-12-01T04:10:39;77.15;;;30.58;;
42332;SDS011;27984;51.476;5.702;2022-12-01T04:13:05;75.20;;;29.73;;
42332;SDS011;27984;51.476;5.702;2022-12-01T04:15:36;74.70;;;29.50;;
42332;SDS011;27984;51.476;5.702;2022-12-01T04:18:02;75.65;;;29.58;;
42332;SDS011;27984;51.476;5.702;2022-12-01T04:20:28;80.75;;;30.35;;
42332;SDS011;27984;51.476;5.702;2022-12-01T04:22:56;73.75;;;29.15;;
42332;SDS011;27984;51.476;5.702;2022-12-01T04:25:22;79.07;;;29.35;;
42332;SDS011;27984;51.476;5.702;2022-12-01T04:27:48;76.93;;;30.38;;
42332;SDS011;27984;51.476;5.702;2022-12-01T04:30:14;74.93;;;29.02;;
42332;SDS011;27984;51.476;5.702;2022-12-01T04:32:41;74.30;;;29.58;;
42332;SDS011;27984;51.476;5.702;2022-12-01T04:35:08;73.47;;;29.02;;
42332;SDS011;27984;51.476;5.702;2022-12-01T04:37:34;73.75;;;29.38;;
42332;SDS011;27984;51.476;5.702;2022-12-01T04:40:00;74.80;;;29.98;;
42332;SDS011;27984;51.476;5.702;2022-12-01T04:42:26;70.25;;;28.63;;
42332;SDS011;27984;51.476;5.702;2022-12-01T04:44:52;74.32;;;29.20;;
42332;SDS011;27984;51.476;5.702;2022-12-01T04:47:18;66.40;;;27.05;;
42332;SDS011;27984;51.476;5.702;2022-12-01T04:49:44;63.25;;;26.45;;
42332;SDS011;27984;51.476;5.702;2022-12-01T04:52:10;63.15;;;27.42;;
42332;SDS011;27984;51.476;5.702;2022-12-01T04:54:36;61.47;;;27.15;;
42332;SDS011;27984;51.476;5.702;2022-12-01T04:57:02;60.95;;;27.67;;
42332;SDS011;27984;51.476;5.702;2022-12-01T04:59:28;63.30;;;26.55;;
42332;SDS011;27984;51.476;5.702;2022-12-01T05:01:54;62.03;;;25.83;;
42332;SDS011;27984;51.476;5.702;2022-12-01T05:04:20;61.58;;;27.08;;
42332;SDS011;27984;51.476;5.702;2022-12-01T05:06:46;62.88;;;26.65;;
42332;SDS011;27984;51.476;5.702;2022-12-01T05:09:12;57.20;;;27.48;;
42332;SDS011;27984;51.476;5.702;2022-12-01T05:11:39;57.95;;;25.33;;
42332;SDS011;27984;51.476;5.702;2022-12-01T05:14:05;53.35;;;26.13;;
42332;SDS011;27984;51.476;5.702;2022-12-01T05:16:34;55.97;;;25.88;;
42332;SDS011;27984;51.476;5.702;2022-12-01T05:19:01;60.97;;;26.38;;
42332;SDS011;27984;51.476;5.702;2022-12-01T05:21:48;58.22;;;26.10;;
42332;SDS011;27984;51.476;5.702;2022-12-01T05:24:14;61.30;;;25.48;;
42332;SDS011;27984;51.476;5.702;2022-12-01T05:26:41;61.20;;;25.88;;
42332;SDS011;27984;51.476;5.702;2022-12-01T05:29:07;54.97;;;25.48;;
42332;SDS011;27984;51.476;5.702;2022-12-01T05:31:33;59.30;;;26.00;;
42332;SDS011;27984;51.476;5.702;2022-12-01T05:33:59;55.92;;;25.85;;
42332;SDS011;27984;51.476;5.702;2022-12-01T05:36:26;59.17;;;26.90;;
42332;SDS011;27984;51.476;5.702;2022-12-01T05:38:52;53.72;;;25.48;;
42332;SDS011;27984;51.476;5.702;2022-12-01T05:41:18;55.40;;;25.83;;
42332;SDS011;27984;51.476;5.702;2022-12-01T05:43:46;53.35;;;24.42;;
42332;SDS011;27984;51.476;5.702;2022-12-01T05:46:12;52.03;;;24.92;;
42332;SDS011;27984;51.476;5.702;2022-12-01T05:48:38;55.55;;;26.00;;
42332;SDS011;27984;51.476;5.702;2022-12-01T05:51:14;62.35;;;25.88;;
42332;SDS011;27984;51.476;5.702;2022-12-01T05:56:06;56.70;;;23.77;;
42332;SDS011;27984;51.476;5.702;2022-12-01T05:58:35;58.95;;;24.80;;
42332;SDS011;27984;51.476;5.702;2022-12-01T06:01:03;54.10;;;24.23;;
42332;SDS011;27984;51.476;5.702;2022-12-01T06:03:32;52.75;;;24.73;;
42332;SDS011;27984;51.476;5.702;2022-12-01T06:05:58;53.90;;;25.42;;
42332;SDS011;27984;51.476;5.702;2022-12-01T06:08:27;50.25;;;24.13;;
42332;SDS011;27984;51.476;5.702;2022-12-01T06:10:53;52.58;;;24.50;;
42332;SDS011;27984;51.476;5.702;2022-12-01T06:13:22;50.65;;;23.48;;
42332;SDS011;27984;51.476;5.702;2022-12-01T06:15:58;50.08;;;23.75;;
42332;SDS011;27984;51.476;5.702;2022-12-01T06:18:25;47.40;;;23.40;;
42332;SDS011;27984;51.476;5.702;2022-12-01T06:20:51;54.97;;;23.70;;
42332;SDS011;27984;51.476;5.702;2022-12-01T06:23:20;49.85;;;23.25;;
42332;SDS011;27984;51.476;5.702;2022-12-01T06:25:46;51.58;;;24.52;;
42332;SDS011;27984;51.476;5.702;2022-12-01T06:28:14;52.63;;;23.08;;
42332;SDS011;27984;51.476;5.702;2022-12-01T06:30:41;48.65;;;23.27;;
42332;SDS011;27984;51.476;5.702;2022-12-01T06:33:07;50.28;;;23.42;;
42332;SDS011;27984;51.476;5.702;2022-12-01T06:35:33;51.00;;;22.75;;
42332;SDS011;27984;51.476;5.702;2022-12-01T06:37:59;45.47;;;21.80;;
42332;SDS011;27984;51.476;5.702;2022-12-01T06:40:25;47.60;;;22.00;;
42332;SDS011;27984;51.476;5.702;2022-12-01T06:42:52;44.95;;;21.98;;
42332;SDS011;27984;51.476;5.702;2022-12-01T06:45:18;48.00;;;21.27;;
42332;SDS011;27984;51.476;5.702;2022-12-01T06:47:44;46.28;;;22.30;;
42332;SDS011;27984;51.476;5.702;2022-12-01T06:50:12;49.20;;;21.92;;
42332;SDS011;27984;51.476;5.702;2022-12-01T06:52:38;50.97;;;22.88;;
42332;SDS011;27984;51.476;5.702;2022-12-01T06:55:06;49.17;;;22.98;;
42332;SDS011;27984;51.476;5.702;2022-12-01T06:57:32;48.33;;;22.52;;
42332;SDS011;27984;51.476;5.702;2022-12-01T07:00:00;54.83;;;23.35;;
42332;SDS011;27984;51.476;5.702;2022-12-01T07:02:28;49.60;;;21.95;;
42332;SDS011;27984;51.476;5.702;2022-12-01T07:04:56;55.83;;;23.05;;
42332;SDS011;27984;51.476;5.702;2022-12-01T07:07:22;51.38;;;23.48;;
42332;SDS011;27984;51.476;5.702;2022-12-01T07:09:48;50.05;;;23.90;;
42332;SDS011;27984;51.476;5.702;2022-12-01T07:12:14;58.08;;;24.75;;
42332;SDS011;27984;51.476;5.702;2022-12-01T07:14:40;54.95;;;25.17;;
42332;SDS011;27984;51.476;5.702;2022-12-01T07:17:06;55.83;;;24.25;;
42332;SDS011;27984;51.476;5.702;2022-12-01T07:19:33;53.33;;;24.00;;
42332;SDS011;27984;51.476;5.702;2022-12-01T07:21:59;57.20;;;25.17;;
42332;SDS011;27984;51.476;5.702;2022-12-01T07:24:28;59.88;;;25.77;;
42332;SDS011;27984;51.476;5.702;2022-12-01T07:26:55;52.75;;;24.17;;
42332;SDS011;27984;51.476;5.702;2022-12-01T07:29:25;57.95;;;25.88;;
42332;SDS011;27984;51.476;5.702;2022-12-01T07:31:51;56.33;;;25.63;;
42332;SDS011;27984;51.476;5.702;2022-12-01T07:34:17;62.38;;;26.60;;
42332;SDS011;27984;51.476;5.702;2022-12-01T07:36:43;60.95;;;25.45;;
42332;SDS011;27984;51.476;5.702;2022-12-01T07:39:09;59.00;;;25.88;;
42332;SDS011;27984;51.476;5.702;2022-12-01T07:41:35;62.60;;;26.95;;
42332;SDS011;27984;51.476;5.702;2022-12-01T07:44:04;61.45;;;26.48;;
42332;SDS011;27984;51.476;5.702;2022-12-01T07:46:33;54.45;;;25.98;;
42332;SDS011;27984;51.476;5.702;2022-12-01T07:49:03;60.50;;;27.08;;
42332;SDS011;27984;51.476;5.702;2022-12-01T07:51:30;60.38;;;26.73;;
42332;SDS011;27984;51.476;5.702;2022-12-01T07:53:59;62.33;;;26.17;;
42332;SDS011;27984;51.476;5.702;2022-12-01T07:56:26;60.67;;;26.80;;
42332;SDS011;27984;51.476;5.702;2022-12-01T07:58:52;65.78;;;27.88;;
42332;SDS011;27984;51.476;5.702;2022-12-01T08:01:19;57.80;;;25.63;;
42332;SDS011;27984;51.476;5.702;2022-12-01T08:03:46;56.25;;;25.95;;
42332;SDS011;27984;51.476;5.702;2022-12-01T08:06:13;59.10;;;25.58;;
42332;SDS011;27984;51.476;5.702;2022-12-01T08:08:39;55.83;;;25.88;;
42332;SDS011;27984;51.476;5.702;2022-12-01T08:11:08;50.85;;;25.10;;
42332;SDS011;27984;51.476;5.702;2022-12-01T08:13:34;52.58;;;25.20;;
42332;SDS011;27984;51.476;5.702;2022-12-01T08:16:04;59.45;;;26.70;;
42332;SDS011;27984;51.476;5.702;2022-12-01T08:18:30;61.08;;;26.13;;
42332;SDS011;27984;51.476;5.702;2022-12-01T08:20:58;58.25;;;25.75;;
42332;SDS011;27984;51.476;5.702;2022-12-01T08:23:24;59.05;;;26.65;;
42332;SDS011;27984;51.476;5.702;2022-12-01T08:25:50;52.70;;;26.13;;
42332;SDS011;27984;51.476;5.702;2022-12-01T08:28:16;52.28;;;25.70;;
42332;SDS011;27984;51.476;5.702;2022-12-01T08:30:42;58.42;;;25.98;;
42332;SDS011;27984;51.476;5.702;2022-12-01T08:33:08;53.28;;;25.88;;
42332;SDS011;27984;51.476;5.702;2022-12-01T08:35:35;51.00;;;25.10;;
42332;SDS011;27984;51.476;5.702;2022-12-01T08:38:01;49.72;;;25.10;;
42332;SDS011;27984;51.476;5.702;2022-12-01T08:40:27;54.88;;;26.05;;
42332;SDS011;27984;51.476;5.702;2022-12-01T08:42:56;55.75;;;25.67;;
42332;SDS011;27984;51.476;5.702;2022-12-01T08:45:25;57.80;;;27.02;;
42332;SDS011;27984;51.476;5.702;2022-12-01T08:47:51;58.47;;;27.38;;
42332;SDS011;27984;51.476;5.702;2022-12-01T08:50:22;61.58;;;29.45;;
42332;SDS011;27984;51.476;5.702;2022-12-01T08:52:48;59.33;;;27.65;;
42332;SDS011;27984;51.476;5.702;2022-12-01T08:55:14;59.88;;;28.67;;
42332;SDS011;27984;51.476;5.702;2022-12-01T08:57:46;59.88;;;27.80;;
42332;SDS011;27984;51.476;5.702;2022-12-01T09:00:12;60.53;;;28.90;;
42332;SDS011;27984;51.476;5.702;2022-12-01T09:02:38;60.30;;;28.02;;
42332;SDS011;27984;51.476;5.702;2022-12-01T09:05:04;63.08;;;28.75;;
42332;SDS011;27984;51.476;5.702;2022-12-01T09:07:31;61.88;;;28.88;;
42332;SDS011;27984;51.476;5.702;2022-12-01T09:09:57;57.85;;;27.02;;
42332;SDS011;27984;51.476;5.702;2022-12-01T09:12:23;59.50;;;29.42;;
42332;SDS011;27984;51.476;5.702;2022-12-01T09:14:51;57.08;;;27.90;;
42332;SDS011;27984;51.476;5.702;2022-12-01T09:17:19;58.58;;;28.65;;
42332;SDS011;27984;51.476;5.702;2022-12-01T09:19:45;57.17;;;27.92;;
42332;SDS011;27984;51.476;5.702;2022-12-01T09:22:11;56.70;;;28.98;;
42332;SDS011;27984;51.476;5.702;2022-12-01T09:24:37;51.83;;;27.50;;
42332;SDS011;27984;51.476;5.702;2022-12-01T09:27:03;54.85;;;28.05;;
42332;SDS011;27984;51.476;5.702;2022-12-01T09:29:30;50.80;;;26.52;;
42332;SDS011;27984;51.476;5.702;2022-12-01T09:31:56;50.30;;;25.70;;
42332;SDS011;27984;51.476;5.702;2022-12-01T09:34:22;52.10;;;27.27;;
42332;SDS011;27984;51.476;5.702;2022-12-01T09:36:48;48.35;;;26.38;;
42332;SDS011;27984;51.476;5.702;2022-12-01T09:39:15;49.53;;;26.60;;
42332;SDS011;27984;51.476;5.702;2022-12-01T09:44:23;50.40;;;26.67;;
42332;SDS011;27984;51.476;5.702;2022-12-01T09:46:56;52.50;;;26.95;;
42332;SDS011;27984;51.476;5.702;2022-12-01T09:49:38;48.25;;;26.25;;
42332;SDS011;27984;51.476;5.702;2022-12-01T09:52:09;51.50;;;26.52;;
42332;SDS011;27984;51.476;5.702;2022-12-01T09:54:38;50.60;;;26.67;;
42332;SDS011;27984;51.476;5.702;2022-12-01T09:57:05;50.17;;;26.23;;
42332;SDS011;27984;51.476;5.702;2022-12-01T09:59:32;48.08;;;24.73;;
42332;SDS011;27984;51.476;5.702;2022-12-01T10:02:02;48.70;;;25.13;;
42332;SDS011;27984;51.476;5.702;2022-12-01T10:07:03;43.17;;;23.50;;
42332;SDS011;27984;51.476;5.702;2022-12-01T10:09:50;41.47;;;22.92;;
42332;SDS011;27984;51.476;5.702;2022-12-01T10:12:18;40.50;;;22.15;;
42332;SDS011;27984;51.476;5.702;2022-12-01T10:14:47;41.67;;;22.90;;
42332;SDS011;27984;51.476;5.702;2022-12-01T10:19:51;43.90;;;24.23;;
42332;SDS011;27984;51.476;5.702;2022-12-01T10:25:05;44.75;;;23.52;;
42332;SDS011;27984;51.476;5.702;2022-12-01T10:30:21;47.53;;;24.83;;
42332;SDS011;27984;51.476;5.702;2022-12-01T10:32:51;47.00;;;25.80;;
42332;SDS011;27984;51.476;5.702;2022-12-01T10:35:20;50.17;;;25.55;;
42332;SDS011;27984;51.476;5.702;2022-12-01T10:37:47;50.53;;;26.05;;
42332;SDS011;27984;51.476;5.702;2022-12-01T10:40:15;51.03;;;25.73;;
42332;SDS011;27984;51.476;5.702;2022-12-01T10:42:45;56.35;;;26.38;;
42332;SDS011;27984;51.476;5.702;2022-12-01T10:45:13;53.00;;;26.48;;
42332;SDS011;27984;51.476;5.702;2022-12-01T10:48:05;55.08;;;26.60;;
42332;SDS011;27984;51.476;5.702;2022-12-01T10:50:26;55.08;;;27.63;;
42332;SDS011;27984;51.476;5.702;2022-12-01T10:52:52;55.17;;;27.35;;
42332;SDS011;27984;51.476;5.702;2022-12-01T10:55:25;58.40;;;29.00;;
42332;SDS011;27984;51.476;5.702;2022-12-01T10:57:52;60.05;;;29.05;;
42332;SDS011;27984;51.476;5.702;2022-12-01T11:00:23;58.40;;;28.60;;
42332;SDS011;27984;51.476;5.702;2022-12-01T11:02:49;61.28;;;29.40;;
42332;SDS011;27984;51.476;5.702;2022-12-01T11:05:20;60.33;;;29.77;;
42332;SDS011;27984;51.476;5.702;2022-12-01T11:07:47;59.50;;;29.17;;
42332;SDS011;27984;51.476;5.702;2022-12-01T11:10:18;60.95;;;28.80;;
42332;SDS011;27984;51.476;5.702;2022-12-01T11:12:51;58.45;;;29.08;;
42332;SDS011;27984;51.476;5.702;2022-12-01T11:15:19;55.83;;;27.85;;
42332;SDS011;27984;51.476;5.702;2022-12-01T11:17:47;59.67;;;30.35;;
42332;SDS011;27984;51.476;5.702;2022-12-01T11:22:46;62.35;;;29.10;;
42332;SDS011;27984;51.476;5.702;2022-12-01T11:25:21;61.42;;;29.35;;
42332;SDS011;27984;51.476;5.702;2022-12-01T11:27:49;61.75;;;28.30;;
42332;SDS011;27984;51.476;5.702;2022-12-01T11:30:33;56.85;;;28.70;;
42332;SDS011;27984;51.476;5.702;2022-12-01T11:33:01;60.90;;;29.15;;
42332;SDS011;27984;51.476;5.702;2022-12-01T11:35:32;58.55;;;28.65;;
42332;SDS011;27984;51.476;5.702;2022-12-01T11:38:00;62.72;;;28.70;;
42332;SDS011;27984;51.476;5.702;2022-12-01T11:40:27;54.35;;;27.38;;
42332;SDS011;27984;51.476;5.702;2022-12-01T11:42:59;56.67;;;27.73;;
42332;SDS011;27984;51.476;5.702;2022-12-01T11:50:25;59.55;;;27.95;;
42332;SDS011;27984;51.476;5.702;2022-12-01T11:52:52;61.25;;;28.50;;
42332;SDS011;27984;51.476;5.702;2022-12-01T11:55:24;57.63;;;29.73;;
42332;SDS011;27984;51.476;5.702;2022-12-01T11:57:51;60.45;;;28.65;;
42332;SDS011;27984;51.476;5.702;2022-12-01T12:00:19;64.57;;;28.65;;
42332;SDS011;27984;51.476;5.702;2022-12-01T12:03:02;54.17;;;27.30;;
42332;SDS011;27984;51.476;5.702;2022-12-01T12:15:57;59.53;;;26.13;;
42332;SDS011;27984;51.476;5.702;2022-12-01T12:23:40;50.70;;;26.27;;
42332;SDS011;27984;51.476;5.702;2022-12-01T12:34:10;50.67;;;26.65;;
42332;SDS011;27984;51.476;5.702;2022-12-01T12:36:56;55.67;;;26.48;;
42332;SDS011;27984;51.476;5.702;2022-12-01T12:41:54;50.13;;;25.98;;
42332;SDS011;27984;51.476;5.702;2022-12-01T12:46:50;55.70;;;27.45;;
42332;SDS011;27984;51.476;5.702;2022-12-01T12:52:11;54.33;;;25.58;;
42332;SDS011;27984;51.476;5.702;2022-12-01T12:57:15;52.08;;;25.30;;
42332;SDS011;27984;51.476;5.702;2022-12-01T12:59:47;55.80;;;24.92;;
42332;SDS011;27984;51.476;5.702;2022-12-01T13:02:15;49.53;;;25.40;;
42332;SDS011;27984;51.476;5.702;2022-12-01T13:12:42;52.70;;;25.08;;
42332;SDS011;27984;51.476;5.702;2022-12-01T13:15:13;52.08;;;25.67;;
42332;SDS011;27984;51.476;5.702;2022-12-01T13:17:42;57.90;;;26.05;;
42332;SDS011;27984;51.476;5.702;2022-12-01T13:20:13;51.25;;;25.20;;
42332;SDS011;27984;51.476;5.702;2022-12-01T13:22:41;52.10;;;24.83;;
42332;SDS011;27984;51.476;5.702;2022-12-01T13:25:10;50.55;;;25.10;;
42332;SDS011;27984;51.476;5.702;2022-12-01T13:27:38;51.47;;;25.52;;
42332;SDS011;27984;51.476;5.702;2022-12-01T13:30:14;51.35;;;25.45;;
42332;SDS011;27984;51.476;5.702;2022-12-01T13:32:41;51.13;;;25.65;;
42332;SDS011;27984;51.476;5.702;2022-12-01T13:37:52;53.25;;;26.00;;
42332;SDS011;27984;51.476;5.702;2022-12-01T13:40:22;57.75;;;25.98;;
42332;SDS011;27984;51.476;5.702;2022-12-01T13:42:56;53.28;;;25.60;;
42332;SDS011;27984;51.476;5.702;2022-12-01T13:45:24;54.70;;;26.13;;
42332;SDS011;27984;51.476;5.702;2022-12-01T13:47:53;51.97;;;26.63;;
42332;SDS011;27984;51.476;5.702;2022-12-01T13:53:13;55.60;;;26.48;;
42332;SDS011;27984;51.476;5.702;2022-12-01T13:58:22;55.58;;;26.38;;
42332;SDS011;27984;51.476;5.702;2022-12-01T14:00:49;52.78;;;26.45;;
42332;SDS011;27984;51.476;5.702;2022-12-01T14:05:42;55.85;;;27.02;;
42332;SDS011;27984;51.476;5.702;2022-12-01T14:08:20;57.15;;;27.33;;
42332;SDS011;27984;51.476;5.702;2022-12-01T14:10:56;55.22;;;26.27;;
42332;SDS011;27984;51.476;5.702;2022-12-01T14:13:23;63.15;;;27.92;;
42332;SDS011;27984;51.476;5.702;2022-12-01T14:15:56;53.33;;;27.52;;
42332;SDS011;27984;51.476;5.702;2022-12-01T14:20:51;54.70;;;28.08;;
42332;SDS011;27984;51.476;5.702;2022-12-01T14:23:39;54.47;;;27.08;;
42332;SDS011;27984;51.476;5.702;2022-12-01T14:26:18;58.38;;;29.08;;
42332;SDS011;27984;51.476;5.702;2022-12-01T14:36:43;60.13;;;29.52;;
42332;SDS011;27984;51.476;5.702;2022-12-01T14:39:11;54.92;;;28.88;;
42332;SDS011;27984;51.476;5.702;2022-12-01T14:41:42;59.35;;;29.02;;
42332;SDS011;27984;51.476;5.702;2022-12-01T14:44:23;61.97;;;28.65;;
42332;SDS011;27984;51.476;5.702;2022-12-01T14:46:55;60.05;;;29.13;;
42332;SDS011;27984;51.476;5.702;2022-12-01T14:49:24;64.47;;;30.30;;
42332;SDS011;27984;51.476;5.702;2022-12-01T14:51:59;61.17;;;28.73;;
42332;SDS011;27984;51.476;5.702;2022-12-01T14:54:32;60.47;;;29.15;;
42332;SDS011;27984;51.476;5.702;2022-12-01T14:57:00;56.55;;;28.38;;
42332;SDS011;27984;51.476;5.702;2022-12-01T14:59:30;55.92;;;27.38;;
42332;SDS011;27984;51.476;5.702;2022-12-01T15:01:57;54.47;;;27.80;;
42332;SDS011;27984;51.476;5.702;2022-12-01T15:04:32;57.55;;;28.33;;
42332;SDS011;27984;51.476;5.702;2022-12-01T15:06:59;52.88;;;27.88;;
42332;SDS011;27984;51.476;5.702;2022-12-01T15:09:25;52.88;;;26.90;;
42332;SDS011;27984;51.476;5.702;2022-12-01T15:12:01;56.60;;;28.45;;
42332;SDS011;27984;51.476;5.702;2022-12-01T15:16:56;60.10;;;28.30;;
42332;SDS011;27984;51.476;5.702;2022-12-01T15:19:26;54.53;;;27.90;;
42332;SDS011;27984;51.476;5.702;2022-12-01T15:21:54;56.72;;;28.23;;
42332;SDS011;27984;51.476;5.702;2022-12-01T15:24:21;56.03;;;27.20;;
42332;SDS011;27984;51.476;5.702;2022-12-01T15:26:49;55.85;;;27.15;;
42332;SDS011;27984;51.476;5.702;2022-12-01T15:29:16;59.05;;;27.60;;
42332;SDS011;27984;51.476;5.702;2022-12-01T15:31:43;53.55;;;27.58;;
42332;SDS011;27984;51.476;5.702;2022-12-01T15:34:15;51.30;;;25.42;;
42332;SDS011;27984;51.476;5.702;2022-12-01T15:36:42;64.03;;;28.35;;
42332;SDS011;27984;51.476;5.702;2022-12-01T15:39:12;53.08;;;26.85;;
42332;SDS011;27984;51.476;5.702;2022-12-01T15:41:43;55.65;;;26.90;;
42332;SDS011;27984;51.476;5.702;2022-12-01T15:44:17;57.20;;;28.85;;
42332;SDS011;27984;51.476;5.702;2022-12-01T15:46:46;57.47;;;27.35;;
42332;SDS011;27984;51.476;5.702;2022-12-01T15:49:22;57.42;;;28.13;;
42332;SDS011;27984;51.476;5.702;2022-12-01T15:51:51;56.53;;;28.02;;
42332;SDS011;27984;51.476;5.702;2022-12-01T15:54:19;57.65;;;29.15;;
42332;SDS011;27984;51.476;5.702;2022-12-01T15:56:48;58.47;;;28.05;;
42332;SDS011;27984;51.476;5.702;2022-12-01T16:01:53;62.30;;;29.58;;
42332;SDS011;27984;51.476;5.702;2022-12-01T16:04:30;52.13;;;27.55;;
42332;SDS011;27984;51.476;5.702;2022-12-01T16:09:38;60.97;;;28.30;;
42332;SDS011;27984;51.476;5.702;2022-12-01T16:14:47;62.20;;;29.73;;
42332;SDS011;27984;51.476;5.702;2022-12-01T16:17:13;59.65;;;28.08;;
42332;SDS011;27984;51.476;5.702;2022-12-01T16:19:44;61.30;;;28.50;;
42332;SDS011;27984;51.476;5.702;2022-12-01T16:22:14;62.95;;;29.63;;
42332;SDS011;27984;51.476;5.702;2022-12-01T16:24:46;60.78;;;29.50;;
42332;SDS011;27984;51.476;5.702;2022-12-01T16:27:17;65.78;;;30.40;;
42332;SDS011;27984;51.476;5.702;2022-12-01T16:30:05;62.80;;;29.42;;
42332;SDS011;27984;51.476;5.702;2022-12-01T16:32:33;61.28;;;29.15;;
42332;SDS011;27984;51.476;5.702;2022-12-01T16:35:00;57.65;;;28.25;;
42332;SDS011;27984;51.476;5.702;2022-12-01T16:37:28;59.75;;;27.98;;
42332;SDS011;27984;51.476;5.702;2022-12-01T16:39:54;54.22;;;27.70;;
42332;SDS011;27984;51.476;5.702;2022-12-01T16:42:20;56.63;;;28.38;;
42332;SDS011;27984;51.476;5.702;2022-12-01T16:44:46;54.55;;;27.40;;
42332;SDS011;27984;51.476;5.702;2022-12-01T16:47:19;57.85;;;28.92;;
42332;SDS011;27984;51.476;5.702;2022-12-01T16:49:45;55.85;;;27.63;;
42332;SDS011;27984;51.476;5.702;2022-12-01T16:52:11;55.00;;;28.42;;